Time;durP1;ratioP1;P1;durP2;ratioP2;P2;SDS_P1;SDS_P2;PMS_P1;PMS_P2;Temp;Humidity;BMP_temperature;BMP_pressure;BME280_temperature;BME280_humidity;BME280_pressure;Samples;Min_cycle;Max_cycle;Signal;HPM_P1;HPM_P2
2021/11/02 00:00:54;;;;;;;;;;;;;;;;;;;;;
2021/11/02 00:06:35;;;;;;;;;;;;;;;;;;;;;
2021/11/02 00:12:18;;;;;;;;;;;;;;;;;;;;;
2021/11/02 00:17:26;;;;;;;36.70;21.90;;;;;;;7.25;65.83;98579.61;227331;1200;142081;-80
2021/11/02 00:22:37;;;;;;;33.20;21.20;;;;;;;7.16;66.59;98574.25;227611;1200;139093;-75
2021/11/02 00:28:04;;;;;;;33.50;21.20;;;;;;;7.05;66.31;98573.60;227061;1200;139208;-74
2021/11/02 00:33:30;;;;;;;;;;;;;;;;;;;;;
2021/11/02 00:38:39;;;;;;;35.40;23.20;;;;;;;6.83;66.60;98575.02;227139;1200;139792;-70
2021/11/02 00:43:46;;;;;;;38.40;24.60;;;;;;;6.72;66.91;98578.71;228207;1200;141193;-71
2021/11/02 00:48:51;;;;;;;37.50;23.00;;;;;;;6.73;67.72;98570.30;227110;1200;140311;-72
2021/11/02 00:53:56;;;;;;;36.60;24.00;;;;;;;6.84;68.00;98574.41;226859;1200;139647;-71
2021/11/02 00:59:10;;;;;;;32.70;21.20;;;;;;;6.95;68.30;98569.80;228581;1199;139924;-72
2021/11/02 01:04:15;;;;;;;31.10;22.00;;;;;;;7.06;68.55;98564.35;228425;1200;141680;-72
2021/11/02 01:09:20;;;;;;;38.00;22.20;;;;;;;7.17;68.67;98567.70;226725;1200;140034;-72
2021/11/02 01:14:24;;;;;;;35.20;23.30;;;;;;;7.27;68.71;98562.08;228424;1199;139715;-74
2021/11/02 01:19:31;;;;;;;35.90;22.40;;;;;;;7.37;68.86;98551.25;227910;1200;141362;-75
2021/11/02 01:24:36;;;;;;;43.00;24.20;;;;;;;7.47;68.64;98543.41;228861;1200;139985;-74
2021/11/02 01:29:42;;;;;;;43.90;25.50;;;;;;;7.60;68.54;98544.06;228495;1200;140408;-74
2021/11/02 01:34:48;;;;;;;;;;;;;;;7.71;68.54;98551.63;229183;1200;140289;-74
2021/11/02 01:40:00;;;;;;;23.80;16.00;;;;;;;7.73;68.34;98534.58;227139;1200;126300;-72
2021/11/02 01:45:15;;;;;;;27.80;18.30;;;;;;;7.74;68.36;98524.72;227617;1200;139871;-71
2021/11/02 01:50:20;;;;;;;36.60;24.10;;;;;;;7.73;68.19;98515.54;227515;1200;139453;-73
2021/11/02 01:55:24;;;;;;;45.80;25.40;;;;;;;7.74;68.53;98509.59;228232;1200;142955;-74
2021/11/02 02:00:33;;;;;;;36.20;24.60;;;;;;;7.79;68.32;98503.51;227055;1200;141344;-72
2021/11/02 02:05:50;;;;;;;41.20;25.40;;;;;;;7.81;68.12;98502.31;227525;1200;140861;-70
2021/11/02 02:11:00;;;;;;;36.30;23.80;;;;;;;7.83;68.37;98496.24;226479;1200;140504;-70
2021/11/02 02:16:35;;;;;;;36.40;22.60;;;;;;;7.83;68.44;98496.25;227266;1200;140276;-70
2021/11/02 02:22:05;;;;;;;38.10;24.40;;;;;;;7.80;68.68;98501.88;227250;1200;140049;-70
2021/11/02 02:28:02;;;;;;;43.90;26.30;;;;;;;7.78;68.43;98500.52;226289;1200;141271;-69
2021/11/02 02:33:29;;;;;;;35.80;21.00;;;;;;;7.76;68.38;98497.00;226628;1203;140395;-72
2021/11/02 02:38:42;;;;;;;36.20;24.00;;;;;;;7.70;68.39;98481.90;226387;1200;140518;-72
2021/11/02 02:43:56;;;;;;;30.80;18.40;;;;;;;7.64;68.57;98475.95;227089;1200;140138;-77
2021/11/02 02:49:04;;;;;;;30.90;20.00;;;;;;;7.58;68.62;98479.70;227699;1200;139313;-71
2021/11/02 02:54:11;;;;;;;40.80;25.70;;;;;;;7.55;68.46;98475.25;227277;1200;139587;-72
2021/11/02 02:59:15;;;;;;;40.20;25.30;;;;;;;7.56;68.89;98480.15;226861;1200;141546;-72
2021/11/02 03:04:25;;;;;;;47.30;28.10;;;;;;;7.62;68.86;98480.88;227742;1200;140449;-69
2021/11/02 03:09:35;;;;;;;36.90;20.70;;;;;;;7.67;68.73;98471.95;227665;1200;140374;-77
2021/11/02 03:20:40;;;;;;;30.70;18.70;;;;;;;7.72;68.74;98459.60;228408;1200;140607;-74
2021/11/02 04:44:32;;;;;;;43.30;25.00;;;;;;;8.13;68.78;98425.23;227961;1200;141406;-73
2021/11/02 05:50:04;;;;;;;48.80;27.90;;;;;;;8.25;69.02;98410.80;228052;1200;140250;-74
2021/11/02 06:01:04;;;;;;;38.60;23.00;;;;;;;8.27;69.05;98398.25;227633;1200;140061;-73
2021/11/02 06:29:41;;;;;;;38.10;21.70;;;;;;;8.29;69.37;98407.54;228118;1200;139321;-73
2021/11/02 06:35:20;;;;;;;39.10;24.90;;;;;;;8.29;69.45;98408.23;226136;1200;142522;-72
2021/11/02 06:58:34;;;;;;;25.30;19.10;;;;;;;8.38;69.88;98414.24;226455;1201;140595;-73
2021/11/02 08:48:56;;;;;;;53.90;31.30;;;;;;;8.92;72.78;98411.57;227129;1184;140393;-73
2021/11/02 08:53:58;;;;;;;50.00;29.30;;;;;;;8.96;73.19;98411.59;228322;1200;140438;-74
2021/11/02 08:59:28;;;;;;;45.60;31.00;;;;;;;9.02;73.42;98412.86;227323;1200;140050;-75
2021/11/02 09:05:07;;;;;;;46.20;28.20;;;;;;;9.06;73.41;98407.99;227612;1200;140287;-74
2021/11/02 09:10:29;;;;;;;;;;;;;;;;;;;;;
2021/11/02 09:15:59;;;;;;;;;;;;;;;;;;;;;
2021/11/02 09:21:22;;;;;;;39.20;28.40;;;;;;;9.14;74.24;98402.09;227447;1200;144424;-74
2021/11/02 09:26:26;;;;;;;40.20;27.00;;;;;;;9.24;74.40;98402.98;228136;1200;140295;-74
2021/11/02 09:31:32;;;;;;;43.30;25.90;;;;;;;9.36;74.43;98406.73;226873;1200;139972;-73
2021/11/02 09:37:02;;;;;;;;;;;;;;;;;;;;;
2021/11/02 09:42:09;;;;;;;34.10;20.50;;;;;;;9.50;74.44;98403.41;228838;1200;140992;-75
2021/11/02 09:47:57;;;;;;;38.30;27.10;;;;;;;9.45;74.35;98399.90;228779;1200;140668;-76
2021/11/02 09:53:26;;;;;;;39.90;26.10;;;;;;;9.42;74.39;98395.16;228833;1200;140508;-76
2021/11/02 09:59:28;;;;;;;;;;;;;;;;;;;;;
2021/11/02 10:05:00;;;;;;;47.80;30.00;;;;;;;9.49;74.80;98384.26;228748;1200;141983;-74
2021/11/02 10:10:15;;;;;;;44.50;28.00;;;;;;;9.55;75.01;98383.33;226909;1200;140870;-74
2021/11/02 10:15:50;;;;;;;35.60;22.40;;;;;;;9.62;75.18;98377.67;226968;1200;140036;-74
2021/11/02 10:21:27;;;;;;;37.30;24.30;;;;;;;9.62;75.26;98375.86;226426;1200;140630;-74
2021/11/02 10:26:47;;;;;;;47.00;29.20;;;;;;;9.61;75.43;98377.02;226206;1200;141236;-73
2021/11/02 10:32:20;;;;;;;38.10;26.00;;;;;;;9.61;75.78;98374.31;227311;1200;141497;-74
2021/11/02 10:37:46;;;;;;;40.60;26.60;;;;;;;9.64;75.78;98371.18;226996;1200;140717;-73
2021/11/02 10:43:39;;;;;;;;;;;;;;;;;;;;;
2021/11/02 10:48:53;;;;;;;38.70;26.30;;;;;;;9.83;75.93;98362.55;226591;1200;153177;-73
2021/11/02 10:54:34;;;;;;;30.20;19.90;;;;;;;9.87;76.14;98362.08;226363;1200;140413;-73
2021/11/02 10:59:46;;;;;;;48.40;28.30;;;;;;;9.83;76.15;98363.98;227617;1200;140889;-74
2021/11/02 11:05:14;;;;;;;43.60;28.10;;;;;;;9.87;76.39;98363.36;227188;1200;141462;-74
2021/11/02 11:10:28;;;;;;;51.10;30.60;;;;;;;9.94;76.26;98362.15;226667;1200;140436;-74
2021/11/02 11:21:17;;;;;;;;;;;;;;;;;;;;;
2021/11/02 11:26:49;;;;;;;36.40;26.80;;;;;;;9.97;76.29;98366.95;227584;1200;139739;-74
2021/11/02 11:31:57;;;;;;;38.00;25.40;;;;;;;9.97;76.55;98365.04;228276;1200;139984;-70
2021/11/02 11:37:06;;;;;;;35.10;24.40;;;;;;;10.02;76.75;98363.83;228747;1200;140643;-74
2021/11/02 11:42:18;;;;;;;;;;;;;;;10.10;76.66;98364.83;228455;1200;142170;-75
2021/11/02 11:47:51;;;;;;;39.20;24.00;;;;;;;10.10;76.51;98365.20;229221;1200;126750;-70
2021/11/02 11:53:41;;;;;;;36.60;24.40;;;;;;;10.07;76.67;98366.02;228382;1200;140839;-72
2021/11/02 11:58:27;;;;;;;29.90;22.50;;;;;;;10.09;76.65;98363.98;228826;1200;141294;-73
2021/11/02 12:04:18;;;;;;;35.10;24.30;;;;;;;10.16;76.87;98364.46;227852;1200;140735;-74
2021/11/02 12:09:22;;;;;;;36.40;25.20;;;;;;;10.23;76.72;98362.86;228348;1200;141752;-75
2021/11/02 12:14:28;;;;;;;36.00;23.50;;;;;;;10.19;76.29;98362.09;229001;1199;141234;-74
2021/11/02 12:19:59;;;;;;;;;;;;;;;;;;;;;
2021/11/02 12:25:10;;;;;;;31.10;18.50;;;;;;;10.14;76.87;98361.27;227844;1200;151203;-73
2021/11/02 12:30:21;;;;;;;25.30;17.90;;;;;;;10.14;76.82;98358.49;226831;1200;140605;-73
2021/11/02 12:36:04;;;;;;;;;;;;;;;;;;;;;
2021/11/02 12:42:07;;;;;;;33.50;19.90;;;;;;;10.10;77.14;98357.74;227722;1200;139543;-73
2021/11/02 12:47:34;;;;;;;26.60;17.90;;;;;;;10.19;77.08;98357.12;227325;1200;141177;-73
2021/11/02 12:52:44;;;;;;;30.00;19.40;;;;;;;10.28;77.29;98357.86;228778;1200;140949;-74
2021/11/02 12:57:48;;;;;;;;;;;;;;;10.37;77.33;98357.16;227318;1200;141620;-75
2021/11/02 13:03:23;;;;;;;26.50;18.60;;;;;;;10.34;77.15;98350.23;227630;1200;126557;-73
2021/11/02 13:09:22;;;;;;;24.40;18.50;;;;;;;10.28;77.03;98357.00;227326;1200;140249;-74
2021/11/02 13:15:13;;;;;;;26.40;19.20;;;;;;;10.31;77.03;98356.09;227084;1200;141894;-72
2021/11/02 13:21:01;;;;;;;26.30;19.90;;;;;;;10.33;77.03;98354.18;227520;1200;140554;-73
2021/11/02 13:26:40;;;;;;;30.50;21.30;;;;;;;10.34;77.25;98356.37;228001;1200;140272;-73
2021/11/02 13:31:54;;;;;;;23.10;17.60;;;;;;;10.38;77.07;98357.60;227661;1200;141068;-72
2021/11/02 13:37:03;;;;;;;24.30;18.50;;;;;;;10.37;76.98;98355.57;226690;1199;143057;-73
2021/11/02 13:42:45;;;;;;;24.60;17.40;;;;;;;10.31;77.06;98355.46;229139;1200;142106;-74
2021/11/02 13:47:49;;;;;;;25.30;19.80;;;;;;;10.28;77.24;98356.73;229169;1200;140064;-74
2021/11/02 13:52:56;;;;;;;27.20;19.80;;;;;;;10.26;77.16;98359.50;228130;1200;140411;-76
2021/11/02 13:58:41;;;;;;;29.80;19.20;;;;;;;10.29;77.26;98359.23;228785;1200;140786;-78
2021/11/02 14:04:05;;;;;;;25.40;18.60;;;;;;;10.34;77.06;98361.33;228521;1200;141651;-74
2021/11/02 14:09:13;;;;;;;26.10;17.40;;;;;;;10.28;76.96;98367.08;227758;1201;140778;-73
2021/11/02 14:15:01;;;;;;;27.30;18.90;;;;;;;10.22;77.05;98367.05;227842;1200;141427;-74
2021/11/02 14:20:38;;;;;;;31.90;20.70;;;;;;;10.20;77.22;98360.83;228524;1201;141675;-80
2021/11/02 14:26:18;;;;;;;29.40;22.20;;;;;;;10.12;77.13;98361.85;228248;1200;141212;-76
2021/11/02 14:32:07;;;;;;;;;;;;;;;;;;;;;
2021/11/02 14:37:38;;;;;;;32.00;21.50;;;;;;;10.12;77.59;98359.83;226625;1201;140755;-75
2021/11/02 14:42:50;;;;;;;36.20;23.30;;;;;;;10.08;77.58;98359.52;227776;1199;139824;-75
2021/11/02 14:48:50;;;;;;;34.90;23.70;;;;;;;10.03;77.47;98364.63;227405;1200;141033;-74
2021/11/02 14:54:32;;;;;;;34.70;25.70;;;;;;;9.94;77.45;98366.88;227812;1200;140728;-72
2021/11/02 15:00:17;;;;;;;33.40;23.80;;;;;;;9.92;77.81;98361.66;227316;1199;139619;-70
2021/11/02 15:05:22;;;;;;;47.20;32.20;;;;;;;9.85;77.60;98365.42;226800;1200;141116;-71
2021/11/02 15:10:28;;;;;;;35.50;23.80;;;;;;;9.83;77.83;98366.42;227706;1200;140932;-71
2021/11/02 15:15:40;;;;;;;47.30;32.90;;;;;;;9.79;77.93;98365.84;227107;1200;140663;-70
2021/11/02 15:21:16;;;;;;;;;;;;;;;;;;;;;
2021/11/02 15:26:27;;;;;;;39.10;26.60;;;;;;;9.94;78.24;98370.89;228110;1200;141039;-76
2021/11/02 15:31:53;;;;;;;37.00;23.80;;;;;;;9.94;78.21;98373.49;227621;1200;140460;-79
2021/11/02 15:37:16;;;;;;;35.00;24.70;;;;;;;9.99;78.32;98381.44;228692;1201;139957;-78
2021/11/02 15:42:30;;;;;;;33.30;23.80;;;;;;;10.04;78.20;98384.91;227801;1201;139879;-79
2021/11/02 15:48:16;;;;;;;;;;;;;;;;;;;;;
2021/11/02 15:53:52;;;;;;;37.40;24.70;;;;;;;9.97;77.89;98385.69;227991;1201;140156;-79
2021/11/02 15:59:11;;;;;;;34.70;23.20;;;;;;;9.93;77.90;98392.06;228713;1201;139487;-79
2021/11/02 16:04:27;;;;;;;30.50;20.90;;;;;;;9.92;78.05;98399.73;227382;1201;140194;-79
2021/11/02 16:09:47;;;;;;;31.10;19.40;;;;;;;9.96;78.11;98397.61;228359;1200;141423;-77
2021/11/02 16:15:01;;;;;;;28.80;21.60;;;;;;;9.99;78.09;98399.48;228066;1200;140244;-75
2021/11/02 16:20:19;;;;;;;26.60;18.30;;;;;;;9.99;78.28;98402.73;227172;1200;140846;-74
2021/11/02 16:25:28;;;;;;;28.80;19.40;;;;;;;10.01;77.98;98405.30;228117;1199;141070;-78
2021/11/02 16:30:55;;;;;;;27.40;20.70;;;;;;;9.98;78.19;98408.69;226823;1199;144002;-78
2021/11/02 16:36:40;;;;;;;28.10;17.80;;;;;;;9.98;78.21;98417.90;227639;1200;139403;-79
2021/11/02 16:42:16;;;;;;;26.90;15.70;;;;;;;9.98;78.22;98419.81;226932;1200;139887;-76
2021/11/02 16:47:22;;;;;;;24.30;16.70;;;;;;;9.94;78.06;98421.34;226715;1200;142177;-74
2021/11/02 16:52:31;;;;;;;19.80;16.20;;;;;;;9.89;78.13;98422.93;227605;1200;139885;-78
2021/11/02 16:57:58;;;;;;;;;;;;;;;;;;;;;
2021/11/02 17:03:14;;;;;;;16.80;14.30;;;;;;;9.78;77.92;98426.58;226755;1200;142072;-80
2021/11/02 17:09:00;;;;;;;28.00;15.90;;;;;;;9.74;78.13;98441.69;227062;1200;141167;-80
2021/11/02 17:14:28;;;;;;;16.00;12.90;;;;;;;9.66;78.21;98440.64;226551;1200;139694;-80
2021/11/02 17:19:43;;;;;;;15.00;11.10;;;;;;;9.66;78.42;98447.55;227932;1200;140725;-76
2021/11/02 17:25:16;;;;;;;18.70;10.90;;;;;;;9.63;78.23;98454.63;226941;1199;140494;-69
2021/11/02 17:30:31;;;;;;;14.50;9.70;;;;;;;9.58;78.02;98450.39;227684;1200;140233;-76
2021/11/02 17:35:46;;;;;;;12.40;9.50;;;;;;;9.58;78.34;98455.91;228408;1199;139330;-77
2021/11/02 17:41:05;;;;;;;10.80;8.20;;;;;;;9.61;78.26;98463.96;228850;1200;139777;-76
2021/11/02 17:46:11;;;;;;;11.50;8.70;;;;;;;9.61;78.14;98465.20;228681;1200;139948;-75
2021/11/02 17:51:20;;;;;;;9.20;7.60;;;;;;;9.56;78.13;98470.11;229049;1200;139917;-74
2021/11/02 17:56:49;;;;;;;13.70;8.40;;;;;;;9.48;77.96;98471.25;227944;1200;140066;-75
2021/11/02 18:01:55;;;;;;;9.00;7.10;;;;;;;9.46;77.95;98468.21;227765;1200;140841;-74
2021/11/02 18:33:20;;;;;;;11.90;7.50;;;;;;;8.67;79.30;98482.38;232375;1209;635948;-72
2021/11/02 18:38:51;;;;;;;11.70;7.90;;;;;;;8.58;79.18;98482.77;228634;1196;141849;-73
2021/11/02 18:43:56;;;;;;;14.40;9.40;;;;;;;8.61;79.32;98484.39;228530;1196;221371;-71
2021/11/02 18:49:07;;;;;;;11.10;8.10;;;;;;;8.71;79.08;98477.69;227730;1196;138852;-72
2021/11/02 18:54:17;;;;;;;13.00;8.40;;;;;;;8.77;79.34;98474.51;227651;1196;139464;-77
2021/11/02 18:59:21;;;;;;;12.00;8.30;;;;;;;8.77;78.84;98477.53;228822;1196;139163;-80
2021/11/02 19:04:26;;;;;;;13.50;7.30;;;;;;;8.79;78.97;98478.30;228242;1196;140732;-74
2021/11/02 19:09:31;;;;;;;10.70;7.70;;;;;;;8.82;78.65;98481.71;227188;1196;139651;-69
2021/11/02 19:14:46;;;;;;;9.50;8.40;;;;;;;8.77;78.87;98486.63;227232;1196;138765;-72
2021/11/02 19:20:21;;;;;;;;;;;;;;;;;;;;;
2021/11/02 19:25:25;;;;;;;11.50;7.90;;;;;;;8.74;78.71;98492.70;227838;1196;139354;-74
2021/11/02 19:30:31;;;;;;;11.70;8.50;;;;;;;8.68;78.70;98504.81;228650;1196;138740;-71
2021/11/02 19:35:45;;;;;;;9.30;7.60;;;;;;;8.65;78.97;98503.40;229467;1192;139011;-71
2021/11/02 19:40:52;;;;;;;13.30;8.70;;;;;;;8.71;78.79;98503.67;229036;1192;139098;-76
2021/11/02 19:45:57;;;;;;;8.40;6.70;;;;;;;8.78;79.04;98503.05;229231;1193;140004;-77
2021/11/02 19:51:00;;;;;;;12.30;8.50;;;;;;;8.83;79.00;98506.60;230099;1192;138877;-72
2021/11/02 19:56:06;;;;;;;11.60;8.00;;;;;;;8.84;78.91;98520.22;230540;1192;139054;-80
2021/11/02 20:01:09;;;;;;;10.20;8.00;;;;;;;8.78;78.54;98517.67;229208;1193;139270;-78
2021/11/02 20:06:27;;;;;;;11.10;8.80;;;;;;;8.78;78.64;98526.64;228920;1193;139622;-78
2021/11/02 20:11:32;;;;;;;10.10;8.30;;;;;;;8.73;78.83;98523.35;230097;1192;139622;-80
2021/11/02 20:16:38;;;;;;;14.90;8.90;;;;;;;8.70;78.97;98526.18;228689;1193;139812;-80
2021/11/02 20:21:45;;;;;;;10.60;7.90;;;;;;;8.75;79.03;98534.16;230351;1192;139159;-75
2021/11/02 20:26:49;;;;;;;13.20;9.20;;;;;;;8.83;78.85;98541.45;230035;1192;140567;-76
2021/11/02 20:31:54;;;;;;;11.30;8.50;;;;;;;8.83;79.04;98542.05;229393;1190;140674;-75
2021/11/02 20:37:15;;;;;;;9.00;8.10;;;;;;;8.83;78.82;98536.52;230617;1190;138944;-75
2021/11/02 20:42:42;;;;;;;14.50;11.10;;;;;;;8.80;78.73;98541.07;229793;1190;140067;-77
2021/11/02 20:47:55;;;;;;;17.00;11.00;;;;;;;8.74;78.70;98537.17;229716;1190;138778;-77
2021/11/02 20:53:00;;;;;;;15.50;10.50;;;;;;;8.70;78.90;98539.38;230297;1190;138911;-80
2021/11/02 20:58:04;;;;;;;14.30;9.80;;;;;;;8.67;79.01;98550.34;229144;1191;139906;-79
2021/11/02 21:03:09;;;;;;;16.20;10.30;;;;;;;8.64;78.67;98545.30;229529;1190;139534;-76
2021/11/02 21:08:17;;;;;;;11.90;9.20;;;;;;;8.65;79.02;98546.75;229748;1190;140631;-78
2021/11/02 21:13:25;;;;;;;19.00;11.50;;;;;;;8.62;78.88;98552.61;229465;1190;139227;-77
2021/11/02 21:18:38;;;;;;;12.60;9.50;;;;;;;8.59;79.01;98555.98;229593;1190;139586;-78
2021/11/02 21:23:42;;;;;;;18.90;12.00;;;;;;;8.59;79.10;98564.33;229489;1190;140081;-77
2021/11/02 21:28:45;;;;;;;17.20;10.80;;;;;;;8.56;79.24;98564.15;229638;1190;140060;-70
2021/11/02 21:33:52;;;;;;;14.80;11.40;;;;;;;8.53;79.47;98562.64;230221;1190;138927;-79
2021/11/02 21:38:56;;;;;;;17.10;11.40;;;;;;;8.57;79.24;98566.86;230168;1190;141130;-78
2021/11/02 21:44:07;;;;;;;13.40;10.00;;;;;;;8.58;79.20;98568.68;229902;1190;140276;-75
2021/11/02 21:49:21;;;;;;;13.10;10.20;;;;;;;8.56;79.24;98569.89;230088;1190;139574;-78
2021/11/02 21:54:25;;;;;;;11.80;9.40;;;;;;;8.58;79.46;98566.55;230065;1190;144098;-71
2021/11/02 21:59:38;;;;;;;13.50;9.70;;;;;;;8.63;79.17;98566.23;229891;1190;141687;-72
2021/11/02 22:04:43;;;;;;;16.90;11.70;;;;;;;8.60;79.29;98572.95;229853;1190;140162;-78
2021/11/02 22:09:46;;;;;;;15.40;9.70;;;;;;;8.59;79.50;98572.24;231401;1190;139398;-79
2021/11/02 22:14:49;;;;;;;28.90;16.50;;;;;;;8.63;79.34;98566.39;231111;1190;139250;-78
2021/11/02 22:19:52;;;;;;;18.70;14.30;;;;;;;8.65;78.97;98565.30;231535;1190;141170;-78
2021/11/02 22:24:55;;;;;;;15.50;10.80;;;;;;;8.63;79.35;98569.63;230741;1190;140759;-77
2021/11/02 22:29:59;;;;;;;18.60;10.90;;;;;;;8.66;79.16;98567.38;229689;1190;140484;-76
2021/11/02 22:35:03;;;;;;;14.60;10.70;;;;;;;8.67;79.02;98572.81;229820;1190;140277;-78
2021/11/02 22:40:10;;;;;;;14.10;10.20;;;;;;;8.67;79.24;98576.00;229504;1190;140294;-78
2021/11/02 22:45:14;;;;;;;14.60;12.20;;;;;;;8.61;79.26;98571.68;229028;1190;141379;-76
2021/11/02 22:50:23;;;;;;;18.10;9.60;;;;;;;8.59;79.25;98574.69;229627;1190;141310;-79
2021/11/02 22:55:29;;;;;;;13.20;10.70;;;;;;;8.62;79.43;98575.19;229334;1190;140218;-77
2021/11/02 23:00:40;;;;;;;12.10;10.20;;;;;;;8.62;79.40;98574.45;229270;1190;139741;-75
2021/11/02 23:05:45;;;;;;;16.50;10.10;;;;;;;8.54;79.43;98575.55;229459;1177;139129;-76
2021/11/02 23:10:50;;;;;;;15.30;10.20;;;;;;;8.52;79.25;98582.17;229428;1190;139343;-72
2021/11/02 23:15:55;;;;;;;12.60;10.90;;;;;;;8.51;79.44;98585.30;229895;1190;141936;-73
2021/11/02 23:21:00;;;;;;;11.10;9.00;;;;;;;8.49;79.25;98581.18;229009;1190;139809;-74
2021/11/02 23:26:37;;;;;;;15.10;10.60;;;;;;;8.43;79.17;98579.10;229215;1190;138935;-76
2021/11/02 23:31:42;;;;;;;13.50;10.30;;;;;;;8.39;79.26;98586.32;229497;1190;140793;-77
2021/11/02 23:36:46;;;;;;;21.50;13.20;;;;;;;8.38;79.42;98590.50;229652;1183;139406;-77
2021/11/02 23:41:51;;;;;;;16.40;11.50;;;;;;;8.41;79.53;98597.45;229450;1190;141230;-79
2021/11/02 23:47:04;;;;;;;15.00;11.00;;;;;;;8.42;79.34;98602.03;230364;1190;139728;-79
2021/11/02 23:52:11;;;;;;;15.10;10.90;;;;;;;8.45;79.71;98603.45;230679;1190;139034;-76
2021/11/02 23:57:18;;;;;;;14.60;12.40;;;;;;;8.45;79.42;98605.88;229342;1190;140447;-77
